Time;durP1;ratioP1;P1;durP2;ratioP2;P2;SDS_P1;SDS_P2;PMS_P1;PMS_P2;Temp;Humidity;BMP_temperature;BMP_pressure;BME280_temperature;BME280_humidity;BME280_pressure;Samples;Min_cycle;Max_cycle;Signal;HPM_P1;HPM_P2
2022/09/13 00:01:45;;;;;;;;;;;;;;;22.39;47.81;100005.31;4985245;28;6879;-75
2022/09/13 00:04:11;;;;;;;;;;;;;;;22.44;47.36;100011.34;4969945;28;6991;-75
2022/09/13 00:06:36;;;;;;;;;;;;;;;22.51;47.51;100019.16;4982707;28;6792;-75
2022/09/13 00:09:02;;;;;;;;;;;;;;;22.55;46.86;100008.69;4952826;28;6978;-75
2022/09/13 00:11:30;;;;;;;;;;;;;;;22.62;47.32;100004.28;4967917;28;6955;-75
2022/09/13 00:13:57;;;;;;;;;;;;;;;22.69;47.48;100007.69;4970846;28;6812;-74
2022/09/13 00:16:27;;;;;;;;;;;;;;;22.76;46.83;100009.38;4980714;28;8235;-75
2022/09/13 00:18:53;;;;;;;;;;;;;;;22.85;46.58;100009.31;4973130;28;6791;-74
2022/09/13 00:21:21;;;;;;;;;;;;;;;22.93;46.80;100004.00;4968302;28;6812;-75
2022/09/13 00:23:51;;;;;;;;;;;;;;;23.02;46.60;100000.44;4952889;28;6977;-75
2022/09/13 00:26:23;;;;;;;;;;;;;;;23.09;45.99;100007.34;4957813;28;7198;-75
2022/09/13 00:28:52;;;;;;;;;;;;;;;23.16;46.19;99998.56;4973461;28;6812;-75
2022/09/13 00:31:20;;;;;;;;;;;;;;;23.24;45.56;99995.88;4982352;28;7257;-75
2022/09/13 00:33:46;;;;;;;;;;;;;;;23.29;45.96;100004.56;4942106;28;6970;-75
2022/09/13 00:36:14;;;;;;;;;;;;;;;23.33;45.73;100001.91;4952134;28;7320;-76
2022/09/13 00:38:41;;;;;;;;;;;;;;;23.33;45.61;99989.69;4968155;28;6804;-75
2022/09/13 00:41:13;;;;;;;;;;;;;;;23.34;45.39;99993.19;4974014;28;7119;-75
2022/09/13 00:43:51;;;;;;;;;;;;;;;23.34;45.39;99990.56;4970635;28;6795;-75
2022/09/13 00:46:34;;;;;;;;;;;;;;;23.32;45.49;99993.19;4966712;28;7030;-75
2022/09/13 00:49:32;;;;;;;;;;;;;;;23.31;44.87;99986.25;4970679;28;6955;-75
2022/09/13 00:52:07;;;;;;;;;;;;;;;23.32;45.46;99990.59;4982447;28;6808;-75
2022/09/13 00:54:43;;;;;;;;;;;;;;;23.35;45.27;99990.53;4966055;28;7161;-75
2022/09/13 00:57:12;;;;;;;;;;;;;;;23.37;44.84;99986.19;4985027;28;6872;-75
2022/09/13 00:59:54;;;;;;;;;;;;;;;23.39;45.11;99989.63;4985602;28;6799;-76
2022/09/13 01:02:20;;;;;;;;;;;;;;;23.43;45.19;99987.84;4969592;28;6794;-75
2022/09/13 01:04:46;;;;;;;;;;;;;;;23.47;44.78;99983.44;4974905;28;6799;-75
2022/09/13 01:07:16;;;;;;;;;;;;;;;23.52;44.83;99979.03;4967301;28;7012;-75
2022/09/13 01:09:48;;;;;;;;;;;;;;;23.54;44.39;99977.25;4963083;28;7177;-75
2022/09/13 01:12:52;;;;;;;;;;;;;;;23.55;44.56;99976.34;4967858;28;6816;-75
2022/09/13 01:15:17;;;;;;;;;;;;;;;23.52;44.50;99974.66;4955280;28;7126;-75
2022/09/13 01:17:43;;;;;;;;;;;;;;;23.50;44.13;99973.81;4966844;28;6955;-75
2022/09/13 01:20:11;;;;;;;;;;;;;;;23.49;44.10;99973.84;4968504;28;6788;-75
2022/09/13 01:23:07;;;;;;;;;;;;;;;23.43;44.27;99980.88;4968099;28;7022;-75
2022/09/13 01:26:10;;;;;;;;;;;;;;;23.39;44.09;99968.72;4986454;28;7379;-75
2022/09/13 01:29:07;;;;;;;;;;;;;;;23.37;43.92;99980.06;4985555;28;6827;-74
2022/09/13 01:31:54;;;;;;;;;;;;;;;23.34;44.40;99978.34;4984970;28;6831;-75
2022/09/13 01:34:43;;;;;;;;;;;;;;;23.35;44.22;99976.63;4969835;28;6812;-75
2022/09/13 01:37:32;;;;;;;;;;;;;;;23.35;44.33;99974.84;4985090;28;7074;-75
2022/09/13 01:40:04;;;;;;;;;;;;;;;23.35;43.92;99958.31;4969828;28;6808;-75
2022/09/13 01:43:19;;;;;;;;;;;;;;;23.36;43.70;99957.44;4986105;28;6811;-75
2022/09/13 01:46:02;;;;;;;;;;;;;;;23.36;44.32;99953.03;4985588;28;7861;-75
2022/09/13 01:49:13;;;;;;;;;;;;;;;23.37;44.00;99949.59;4967057;28;6970;-75
2022/09/13 01:51:58;;;;;;;;;;;;;;;23.37;44.32;99944.34;4968829;28;6867;-76
2022/09/13 01:54:30;;;;;;;;;;;;;;;23.40;43.78;99941.69;4983735;28;6804;-75
2022/09/13 01:57:21;;;;;;;;;;;;;;;23.41;43.65;99938.19;4985848;28;6780;-75
2022/09/13 02:00:09;;;;;;;;;;;;;;;23.42;43.81;99941.69;4968383;28;7316;-75
2022/09/13 02:03:11;;;;;;;;;;;;;;;23.43;44.23;99944.25;4968910;28;7249;-76
2022/09/13 02:06:07;;;;;;;;;;;;;;;23.44;44.19;99940.75;4969716;28;6820;-75
2022/09/13 02:09:00;;;;;;;;;;;;;;;23.48;43.71;99935.50;4954712;28;7165;-75
2022/09/13 02:11:26;;;;;;;;;;;;;;;23.48;44.43;99935.50;4984719;28;6804;-75
2022/09/13 02:13:52;;;;;;;;;;;;;;;23.48;44.35;99932.88;4968410;28;6792;-75
2022/09/13 02:16:55;;;;;;;;;;;;;;;23.49;43.81;99932.00;4984171;28;7842;-76
2022/09/13 02:19:39;;;;;;;;;;;;;;;23.49;43.68;99934.63;4971968;28;7109;-75
2022/09/13 02:22:09;;;;;;;;;;;;;;;23.48;43.84;99931.13;4983037;28;6800;-75
2022/09/13 02:24:50;;;;;;;;;;;;;;;23.49;44.39;99932.84;4968825;28;6983;-75
2022/09/13 02:27:26;;;;;;;;;;;;;;;23.48;43.98;99930.28;4969720;28;6812;-75
2022/09/13 02:30:01;;;;;;;;;;;;;;;23.49;43.75;99932.84;4967350;28;6952;-76
2022/09/13 02:32:52;;;;;;;;;;;;;;;23.49;43.63;99932.84;4953545;28;6980;-75
2022/09/13 02:35:31;;;;;;;;;;;;;;;23.49;43.63;99934.63;4983917;28;6800;-76
2022/09/13 02:38:10;;;;;;;;;;;;;;;23.49;43.45;99924.16;4969857;28;7163;-73
2022/09/13 02:41:36;;;;;;;;;;;;;;;23.49;43.92;99925.00;4967052;28;6864;-73
2022/09/13 02:44:17;;;;;;;;;;;;;;;23.47;43.49;99920.66;4950292;28;7006;-73
2022/09/13 02:47:20;;;;;;;;;;;;;;;23.48;44.05;99925.03;4967306;28;6974;-74
2022/09/13 02:50:21;;;;;;;;;;;;;;;23.46;43.35;99922.44;4983092;28;7403;-73
2022/09/13 02:53:23;;;;;;;;;;;;;;;23.44;44.08;99926.84;4982491;28;7283;-72
2022/09/13 02:56:39;;;;;;;;;;;;;;;23.42;44.12;99921.59;4967355;28;6884;-73
2022/09/13 02:59:13;;;;;;;;;;;;;;;23.40;43.75;99926.00;4981669;28;6900;-71
2022/09/13 03:01:47;;;;;;;;;;;;;;;23.42;44.02;99931.22;4982762;28;7702;-72
2022/09/13 03:04:13;;;;;;;;;;;;;;;23.42;44.23;99926.84;4961929;28;7201;-72
2022/09/13 03:06:41;;;;;;;;;;;;;;;23.42;43.68;99926.84;4950588;28;7027;-72
2022/09/13 03:09:08;;;;;;;;;;;;;;;23.43;44.12;99928.56;4967019;28;6784;-72
2022/09/13 03:13:01;;;;;;;;;;;;;;;23.44;44.31;99926.84;4969790;28;6824;-72
2022/09/13 03:15:47;;;;;;;;;;;;;;;23.43;44.49;99922.50;4926743;29;7239;-73
2022/09/13 03:18:51;;;;;;;;;;;;;;;23.42;44.62;99916.38;4909651;29;6883;-72
2022/09/13 03:21:49;;;;;;;;;;;;;;;23.39;44.68;99921.66;4971341;28;6816;-72
2022/09/13 03:24:49;;;;;;;;;;;;;;;23.35;44.07;99927.78;4971391;28;6812;-73
2022/09/13 03:27:31;;;;;;;;;;;;;;;23.33;44.40;99934.78;4971360;28;6812;-72
2022/09/13 03:30:14;;;;;;;;;;;;;;;23.33;44.85;99929.56;4987258;28;7591;-73
2022/09/13 03:32:56;;;;;;;;;;;;;;;23.32;44.78;99930.47;4966139;28;11045;-73
2022/09/13 03:35:44;;;;;;;;;;;;;;;23.32;45.00;99937.41;4986223;28;6807;-73
2022/09/13 03:38:26;;;;;;;;;;;;;;;23.28;45.53;99944.47;4969603;28;7035;-73
2022/09/13 03:40:59;;;;;;;;;;;;;;;23.22;45.75;99941.88;4971769;28;7241;-72
2022/09/13 03:43:49;;;;;;;;;;;;;;;23.17;45.78;99932.31;4969509;28;6800;-73
2022/09/13 03:46:57;;;;;;;;;;;;;;;23.11;45.77;99932.41;4959035;28;7166;-72
2022/09/13 03:49:26;;;;;;;;;;;;;;;23.04;46.12;99938.59;4922410;28;7003;-72
2022/09/13 03:51:53;;;;;;;;;;;;;;;23.01;46.46;99941.25;4970553;28;6872;-73
2022/09/13 03:54:31;;;;;;;;;;;;;;;22.98;46.77;99936.91;4970630;28;6792;-73
2022/09/13 03:57:20;;;;;;;;;;;;;;;22.95;46.79;99938.69;4968809;28;6796;-73
2022/09/13 03:59:53;;;;;;;;;;;;;;;22.93;46.54;99945.69;4970684;28;7102;-73
2022/09/13 04:02:21;;;;;;;;;;;;;;;22.91;46.40;99940.44;4969025;28;7110;-72
2022/09/13 04:04:47;;;;;;;;;;;;;;;22.90;46.54;99938.72;4969397;28;7246;-73
2022/09/13 04:07:17;;;;;;;;;;;;;;;22.89;46.75;99943.09;4987540;28;6796;-72
2022/09/13 04:09:44;;;;;;;;;;;;;;;22.91;46.70;99944.84;4969626;28;6807;-73
2022/09/13 04:12:12;;;;;;;;;;;;;;;22.94;46.45;99942.19;4969320;28;7230;-72
2022/09/13 04:14:38;;;;;;;;;;;;;;;22.95;46.74;99946.50;4960312;28;6971;-73
2022/09/13 04:17:04;;;;;;;;;;;;;;;22.97;47.02;99955.19;4975756;28;7227;-72
2022/09/13 04:19:30;;;;;;;;;;;;;;;22.96;47.18;99953.47;4967001;28;6848;-73
2022/09/13 04:21:56;;;;;;;;;;;;;;;22.95;47.08;99952.63;4981480;28;6824;-73
2022/09/13 04:24:26;;;;;;;;;;;;;;;22.96;47.37;99956.97;4986160;28;6929;-73
2022/09/13 04:26:53;;;;;;;;;;;;;;;22.95;47.57;99956.97;4988323;28;7191;-72
2022/09/13 04:29:21;;;;;;;;;;;;;;;22.96;47.27;99953.47;4958624;28;6808;-72
2022/09/13 04:31:49;;;;;;;;;;;;;;;22.95;48.05;99951.75;4969531;28;7245;-73
2022/09/13 04:34:17;;;;;;;;;;;;;;;22.94;48.03;99942.19;4942121;28;6967;-73
2022/09/13 04:36:46;;;;;;;;;;;;;;;22.91;48.21;99940.44;4966606;28;6951;-72
2022/09/13 04:39:14;;;;;;;;;;;;;;;22.89;48.28;99937.88;4968811;28;6776;-72
2022/09/13 04:41:44;;;;;;;;;;;;;;;22.88;47.92;99940.50;4986191;28;7252;-72
2022/09/13 04:44:10;;;;;;;;;;;;;;;22.87;47.75;99941.38;4968894;28;7262;-73
2022/09/13 04:46:36;;;;;;;;;;;;;;;22.85;47.52;99941.38;4967406;28;6945;-73
2022/09/13 04:49:02;;;;;;;;;;;;;;;22.87;47.25;99942.22;4969311;28;6772;-72
2022/09/13 04:51:28;;;;;;;;;;;;;;;22.86;47.35;99937.88;4965762;28;6788;-72
2022/09/13 04:53:56;;;;;;;;;;;;;;;22.86;47.00;99943.13;4964716;28;7227;-72
2022/09/13 04:56:26;;;;;;;;;;;;;;;22.91;46.46;99939.59;4967489;28;8156;-72
2022/09/13 04:58:54;;;;;;;;;;;;;;;22.92;46.53;99936.97;4983671;28;6812;-72
2022/09/13 05:01:22;;;;;;;;;;;;;;;22.97;46.43;99945.63;4967425;28;6796;-72
2022/09/13 05:03:52;;;;;;;;;;;;;;;23.01;46.12;99943.84;4984626;28;6864;-73
2022/09/13 05:06:18;;;;;;;;;;;;;;;23.05;46.01;99948.16;4967045;28;6793;-74
2022/09/13 05:08:54;;;;;;;;;;;;;;;23.09;46.19;99949.88;4954124;28;7376;-73
2022/09/13 05:11:26;;;;;;;;;;;;;;;23.15;45.75;99951.53;4965949;28;6876;-73
2022/09/13 05:13:56;;;;;;;;;;;;;;;23.19;45.82;99947.16;4986040;28;6979;-72
2022/09/13 05:16:28;;;;;;;;;;;;;;;23.22;45.53;99944.50;4943445;28;6842;-73
2022/09/13 05:18:54;;;;;;;;;;;;;;;23.25;45.55;99937.47;4966519;28;7219;-72
2022/09/13 05:21:20;;;;;;;;;;;;;;;23.27;45.10;99935.72;4984070;28;6792;-73
2022/09/13 05:23:54;;;;;;;;;;;;;;;23.30;45.01;99927.00;4967862;28;6851;-73
2022/09/13 05:26:22;;;;;;;;;;;;;;;23.32;45.07;99930.47;4983171;28;7269;-73
2022/09/13 05:28:48;;;;;;;;;;;;;;;23.35;45.09;99938.25;4959090;28;7261;-72
2022/09/13 05:31:23;;;;;;;;;;;;;;;23.36;45.30;99937.34;4978576;28;7126;-72
2022/09/13 05:33:56;;;;;;;;;;;;;;;23.38;45.65;99940.84;4966763;28;7194;-73
2022/09/13 05:36:22;;;;;;;;;;;;;;;23.40;45.54;99946.91;4986640;28;6876;-74
2022/09/13 05:38:47;;;;;;;;;;;;;;;23.40;45.77;99957.38;4967888;28;6848;-72
2022/09/13 05:41:13;;;;;;;;;;;;;;;23.39;45.78;99958.25;4967914;28;6939;-73
2022/09/13 05:43:38;;;;;;;;;;;;;;;23.39;45.90;99957.38;4968246;28;6784;-73
2022/09/13 05:46:12;;;;;;;;;;;;;;;23.39;45.47;99960.88;4957655;28;7056;-72
2022/09/13 05:48:39;;;;;;;;;;;;;;;23.39;46.16;99962.63;4986427;28;7024;-73
2022/09/13 05:51:09;;;;;;;;;;;;;;;23.41;46.09;99956.50;4962860;28;6842;-74
2022/09/13 05:53:38;;;;;;;;;;;;;;;23.42;46.39;99959.97;4967687;28;6803;-73
2022/09/13 05:56:08;;;;;;;;;;;;;;;23.43;46.34;99959.94;4965911;28;7035;-73
2022/09/13 05:58:38;;;;;;;;;;;;;;;23.44;46.69;99961.66;4965221;28;6872;-72
2022/09/13 06:01:04;;;;;;;;;;;;;;;23.42;46.33;99958.22;4955711;28;7011;-72
2022/09/13 06:03:30;;;;;;;;;;;;;;;23.43;46.21;99959.94;4985166;28;7220;-73
2022/09/13 06:05:57;;;;;;;;;;;;;;;23.48;46.55;99956.44;4984207;28;6863;-73
2022/09/13 06:08:28;;;;;;;;;;;;;;;23.52;46.63;99945.03;4967794;28;6808;-72
2022/09/13 06:11:00;;;;;;;;;;;;;;;23.56;45.77;99951.94;4955976;28;6985;-72
2022/09/13 06:13:27;;;;;;;;;;;;;;;23.60;45.76;99953.66;4969030;28;6891;-73
2022/09/13 06:15:58;;;;;;;;;;;;;;;23.64;45.85;99952.69;4967687;28;7171;-74
2022/09/13 06:18:25;;;;;;;;;;;;;;;23.69;46.25;99950.91;4966791;28;6968;-72
2022/09/13 06:21:04;;;;;;;;;;;;;;;23.79;46.24;99956.00;4982475;28;6979;-72
2022/09/13 06:23:30;;;;;;;;;;;;;;;23.86;45.77;99952.44;4966659;28;6812;-73
2022/09/13 06:26:10;;;;;;;;;;;;;;;23.94;46.24;99950.53;4984163;28;6799;-73
2022/09/13 06:28:37;;;;;;;;;;;;;;;24.00;46.78;99950.47;4967941;28;6804;-72
2022/09/13 06:31:06;;;;;;;;;;;;;;;24.05;46.24;99957.44;4944899;28;7139;-72
2022/09/13 06:33:33;;;;;;;;;;;;;;;24.10;46.16;99955.59;4976721;28;6988;-73
2022/09/13 06:36:06;;;;;;;;;;;;;;;24.11;46.41;99952.97;4964689;28;6803;-73
2022/09/13 06:38:31;;;;;;;;;;;;;;;24.18;46.14;99958.09;4983415;28;6800;-72
2022/09/13 06:41:09;;;;;;;;;;;;;;;24.20;46.12;99954.56;4981681;28;7154;-72
2022/09/13 06:43:35;;;;;;;;;;;;;;;24.23;46.25;99954.50;4964819;28;7682;-72
2022/09/13 06:46:10;;;;;;;;;;;;;;;24.27;46.84;99960.56;4964833;28;6938;-73
2022/09/13 06:48:42;;;;;;;;;;;;;;;24.33;46.65;99962.22;4977541;28;6952;-72
2022/09/13 06:51:18;;;;;;;;;;;;;;;24.38;46.52;99950.78;4972681;28;6800;-73
2022/09/13 06:53:46;;;;;;;;;;;;;;;24.44;46.33;99954.19;4964752;28;6800;-73
2022/09/13 06:56:14;;;;;;;;;;;;;;;24.50;46.04;99960.19;4967707;28;7237;-72
2022/09/13 06:58:43;;;;;;;;;;;;;;;24.55;46.21;99958.38;4967141;28;6823;-73
2022/09/13 07:01:13;;;;;;;;;;;;;;;24.64;45.86;99956.50;4962521;28;6792;-74
2022/09/13 07:03:46;;;;;;;;;;;;;;;24.75;46.75;99949.28;4966801;28;6796;-74
2022/09/13 07:06:16;;;;;;;;;;;;;;;24.88;46.04;99949.09;4981273;28;7011;-72
2022/09/13 07:08:44;;;;;;;;;;;;;;;24.95;45.84;99945.47;4957578;28;8641;-72
2022/09/13 07:11:13;;;;;;;;;;;;;;;25.06;45.79;99951.38;4982432;28;6816;-73
2022/09/13 07:13:39;;;;;;;;;;;;;;;25.17;45.98;99952.91;4988862;28;7118;-73
2022/09/13 07:16:10;;;;;;;;;;;;;;;25.30;45.90;99946.56;4967004;28;6808;-73
2022/09/13 07:18:37;;;;;;;;;;;;;;;25.42;46.18;99944.56;4965736;28;6980;-72
2022/09/13 07:21:08;;;;;;;;;;;;;;;25.52;45.55;99952.22;4964368;28;6930;-73
2022/09/13 07:23:36;;;;;;;;;;;;;;;25.62;45.31;99947.66;4966033;28;6855;-73
2022/09/13 07:26:05;;;;;;;;;;;;;;;25.71;45.29;99948.34;4976313;28;7194;-72
2022/09/13 07:28:40;;;;;;;;;;;;;;;25.79;45.19;99938.56;4983647;28;7243;-73
2022/09/13 07:31:39;;;;;;;;;;;;;;;25.84;44.68;99949.78;4971570;28;7119;-72
2022/09/13 07:34:11;;;;;;;;;;;;;;;25.88;45.00;99950.59;4978935;28;7202;-73
2022/09/13 07:36:37;;;;;;;;;;;;;;;25.92;44.57;99957.47;4965175;28;7166;-74
2022/09/13 07:39:03;;;;;;;;;;;;;;;25.95;44.54;99959.19;4964537;28;6930;-73
2022/09/13 07:41:31;;;;;;;;;;;;;;;25.96;44.42;99959.16;4965996;28;6927;-73
2022/09/13 07:44:03;;;;;;;;;;;;;;;25.98;44.01;99953.84;4945482;28;7011;-74
2022/09/13 07:46:31;;;;;;;;;;;;;;;26.02;44.16;99959.00;4982153;28;7197;-73
2022/09/13 07:48:59;;;;;;;;;;;;;;;26.09;44.40;99951.00;4956820;28;6788;-73
2022/09/13 07:51:31;;;;;;;;;;;;;;;26.17;44.49;99960.44;4978976;28;6940;-73
2022/09/13 07:54:03;;;;;;;;;;;;;;;26.30;44.29;99963.63;4981325;28;6987;-72
2022/09/13 07:56:39;;;;;;;;;;;;;;;26.43;44.15;99955.47;4976412;28;6808;-73
2022/09/13 07:59:11;;;;;;;;;;;;;;;26.58;44.02;99964.72;4978208;28;6780;-73
2022/09/13 08:01:43;;;;;;;;;;;;;;;26.74;43.96;99952.03;4966224;28;6777;-74
2022/09/13 08:04:12;;;;;;;;;;;;;;;26.89;43.25;99948.16;4972337;28;7230;-72
2022/09/13 08:06:40;;;;;;;;;;;;;;;27.02;43.01;99948.69;4971511;28;6911;-73
2022/09/13 08:09:08;;;;;;;;;;;;;;;27.15;42.96;99954.50;4950127;28;6844;-73
2022/09/13 08:11:40;;;;;;;;;;;;;;;27.25;42.53;99955.94;4968597;28;7221;-73
2022/09/13 08:14:10;;;;;;;;;;;;;;;27.34;42.40;99949.53;4968610;28;7034;-73
2022/09/13 08:16:38;;;;;;;;;;;;;;;27.42;42.21;99952.81;4970759;28;7011;-72
2022/09/13 08:19:05;;;;;;;;;;;;;;;27.50;42.06;99955.22;4968572;28;6804;-73
2022/09/13 08:21:37;;;;;;;;;;;;;;;27.58;41.82;99963.78;4950847;28;6980;-73
2022/09/13 08:24:07;;;;;;;;;;;;;;;27.66;41.36;99966.19;4969894;28;7060;-72
2022/09/13 08:26:35;;;;;;;;;;;;;;;27.77;40.97;99965.03;4987559;28;7047;-71
2022/09/13 08:29:04;;;;;;;;;;;;;;;27.86;40.93;99968.22;4983151;28;6811;-73
2022/09/13 08:31:31;;;;;;;;;;;;;;;27.96;40.81;99971.44;4980732;28;6820;-73
2022/09/13 08:33:57;;;;;;;;;;;;;;;28.09;40.95;99968.41;4967712;28;6784;-73
2022/09/13 08:36:25;;;;;;;;;;;;;;;28.23;40.46;99963.56;4968304;28;8445;-74
2022/09/13 08:38:59;;;;;;;;;;;;;;;28.36;40.45;99966.66;4969656;28;7052;-73
2022/09/13 08:41:40;;;;;;;;;;;;;;;28.50;39.96;99963.56;4969542;28;7029;-72
2022/09/13 08:44:17;;;;;;;;;;;;;;;28.60;40.31;99969.41;4987640;28;6875;-73
2022/09/13 08:46:48;;;;;;;;;;;;;;;28.68;40.18;99971.78;4986951;28;7243;-74
2022/09/13 08:49:22;;;;;;;;;;;;;;;28.76;39.50;99971.50;4950543;28;7026;-74
2022/09/13 08:52:00;;;;;;;;;;;;;;;28.87;38.93;99969.38;4969035;28;7220;-73
2022/09/13 08:54:25;;;;;;;;;;;;;;;28.99;39.66;99970.72;4944086;28;7013;-73
2022/09/13 08:57:09;;;;;;;;;;;;;;;29.04;38.48;99973.19;4984986;28;6772;-74
2022/09/13 09:00:01;;;;;;;;;;;;;;;29.09;38.35;99969.47;4968058;28;7211;-73
2022/09/13 09:03:06;;;;;;;;;;;;;;;29.16;38.23;99966.63;4987521;28;7022;-72
2022/09/13 09:05:46;;;;;;;;;;;;;;;29.18;38.57;99973.56;4986697;28;7240;-73
2022/09/13 09:08:40;;;;;;;;;;;;;;;29.25;38.67;99975.03;4966935;28;6808;-74
2022/09/13 09:11:34;;;;;;;;;;;;;;;29.28;38.31;99967.97;4966099;28;6796;-73
2022/09/13 09:14:32;;;;;;;;;;;;;;;29.30;38.00;99964.31;4969104;28;6815;-73
2022/09/13 09:17:06;;;;;;;;;;;;;;;29.35;37.85;99974.69;4969300;28;6915;-74
2022/09/13 09:19:40;;;;;;;;;;;;;;;29.38;38.21;99966.69;4983191;28;6876;-73
2022/09/13 09:22:18;;;;;;;;;;;;;;;29.46;38.69;99979.63;4969240;28;6965;-73
2022/09/13 09:24:53;;;;;;;;;;;;;;;29.49;38.28;99980.38;4986534;28;7398;-73
2022/09/13 09:27:20;;;;;;;;;;;;;;;29.56;38.44;99980.16;4981884;28;6942;-72
2022/09/13 09:29:49;;;;;;;;;;;;;;;29.62;38.08;99979.91;4983353;28;6971;-74
2022/09/13 09:32:54;;;;;;;;;;;;;;;29.70;37.70;99983.09;4982848;28;6800;-74
2022/09/13 09:35:41;;;;;;;;;;;;;;;29.81;37.77;99974.78;4984591;28;7235;-72
2022/09/13 09:38:42;;;;;;;;;;;;;;;29.87;37.40;99971.03;4984121;28;7187;-74
2022/09/13 09:41:30;;;;;;;;;;;;;;;29.93;37.46;99973.41;4984197;28;6808;-72
2022/09/13 09:44:16;;;;;;;;;;;;;;;29.99;37.10;99969.69;4967108;28;7198;-74
2022/09/13 09:46:49;;;;;;;;;;;;;;;30.10;37.05;99969.28;4966559;28;6784;-72
2022/09/13 09:53:32;;;;;;;;;;;;;;;30.39;36.52;99975.16;4984578;28;6788;-74
2022/09/13 09:56:11;;;;;;;;;;;;;;;30.47;36.65;99967.75;4879636;29;7028;-74
2022/09/13 09:58:40;;;;;;;;;;;;;;;30.60;36.31;99966.31;4966429;28;7134;-73
2022/09/13 10:01:18;;;;;;;;;;;;;;;30.73;35.69;99957.91;4963726;28;7261;-73
2022/09/13 10:04:17;;;;;;;;;;;;;;;30.86;35.54;99960.88;4984849;28;6868;-72
2022/09/13 10:06:45;;;;;;;;;;;;;;;31.04;35.33;99956.53;4970515;28;7270;-72
2022/09/13 10:09:13;;;;;;;;;;;;;;;31.27;35.52;99944.06;4966813;28;6788;-73
2022/09/13 10:11:50;;;;;;;;;;;;;;;31.52;35.91;99935.00;4985142;28;6812;-73
2022/09/13 10:14:42;;;;;;;;;;;;;;;31.85;35.36;99944.94;4968550;28;6816;-72
2022/09/13 10:17:24;;;;;;;;;;;;;;;32.16;34.74;99939.94;4981594;28;7008;-73
2022/09/13 10:20:18;;;;;;;;;;;;;;;32.35;34.60;99934.53;4978791;28;7196;-73
2022/09/13 10:22:44;;;;;;;;;;;;;;;32.46;33.81;99944.63;4968163;28;6812;-73
2022/09/13 10:25:25;;;;;;;;;;;;;;;32.67;33.77;99934.72;4966595;28;7089;-72
2022/09/13 10:27:57;;;;;;;;;;;;;;;32.93;33.72;99932.50;4965936;28;6803;-72
2022/09/13 10:30:39;;;;;;;;;;;;;;;33.20;33.19;99931.97;4963265;28;6901;-73
2022/09/13 10:33:28;;;;;;;;;;;;;;;33.42;33.09;99926.34;4968885;28;6973;-73
2022/09/13 10:36:14;;;;;;;;;;;;;;;33.56;31.71;99930.03;4969164;28;7267;-73
2022/09/13 10:39:00;;;;;;;;;;;;;;;33.50;32.17;99925.94;4983763;28;6816;-72
2022/09/13 10:41:43;;;;;;;;;;;;;;;33.36;32.26;99922.22;4963667;28;7187;-73
2022/09/13 10:44:44;;;;;;;;;;;;;;;33.24;32.58;99930.88;4983232;28;6943;-74
2022/09/13 10:47:20;;;;;;;;;;;;;;;33.32;33.05;99920.69;4967356;28;7099;-73
2022/09/13 10:49:54;;;;;;;;;;;;;;;33.67;32.84;99925.00;4978470;28;7877;-73
2022/09/13 10:52:34;;;;;;;;;;;;;;;34.18;31.91;99922.09;4955605;28;7059;-73
2022/09/13 10:55:17;;;;;;;;;;;;;;;34.99;32.35;99911.97;4966002;28;6879;-73
2022/09/13 10:58:12;;;;;;;;;;;;;;;35.85;30.74;99902.13;4984070;28;6800;-73
2022/09/13 11:01:14;;;;;;;;;;;;;;;36.44;29.10;99897.31;4971304;28;7011;-73
2022/09/13 11:03:56;;;;;;;;;;;;;;;36.55;28.72;99900.13;4983909;28;6816;-73
2022/09/13 11:07:18;;;;;;;;;;;;;;;36.54;28.99;99900.22;4964967;28;6948;-73
2022/09/13 11:10:23;;;;;;;;;;;;;;;36.91;28.19;99876.31;4903046;29;7315;-73
2022/09/13 11:13:13;;;;;;;;;;;;;;;37.21;28.19;99882.22;4983252;28;7132;-73
2022/09/13 11:15:53;;;;;;;;;;;;;;;37.28;27.57;99879.97;4983828;28;6862;-72
2022/09/13 11:18:40;;;;;;;;;;;;;;;37.27;27.46;99873.78;4966335;28;7102;-73
2022/09/13 11:21:25;;;;;;;;;;;;;;;37.22;27.13;99878.59;4982768;28;7121;-73
2022/09/13 11:24:21;;;;;;;;;;;;;;;37.59;27.19;99889.28;4983831;28;6796;-72
2022/09/13 11:27:09;;;;;;;;;;;;;;;38.32;26.59;99886.50;4968330;28;6878;-72
2022/09/13 11:30:15;;;;;;;;;;;;;;;39.59;26.07;99885.50;4964925;28;6804;-73
2022/09/13 11:33:02;;;;;;;;;;;;;;;40.46;24.32;99878.22;4988362;28;11135;-73
2022/09/13 11:35:46;;;;;;;;;;;;;;;40.67;23.49;99872.00;4988253;28;6844;-74
2022/09/13 11:38:40;;;;;;;;;;;;;;;40.67;23.12;99870.13;4969854;28;6830;-72
2022/09/13 11:41:45;;;;;;;;;;;;;;;40.80;22.96;99869.06;4946312;28;7024;-72
2022/09/13 11:44:58;;;;;;;;;;;;;;;40.82;23.32;99872.50;4986376;28;6816;-73
2022/09/13 11:48:13;;;;;;;;;;;;;;;40.40;23.94;99884.16;4971960;28;6884;-72
2022/09/13 11:51:32;;;;;;;;;;;;;;;40.31;23.95;99879.56;4973554;28;6828;-72
2022/09/13 11:54:32;;;;;;;;;;;;;;;40.35;23.67;99892.59;4906521;29;6891;-72
2022/09/13 11:57:06;;;;;;;;;;;;;;;40.22;23.73;99887.41;4909303;29;7249;-73
2022/09/13 11:59:51;;;;;;;;;;;;;;;40.24;23.77;99884.59;4964838;28;6961;-73
2022/09/13 12:02:37;;;;;;;;;;;;;;;40.35;23.00;99881.00;4988228;28;6788;-74
2022/09/13 12:05:19;;;;;;;;;;;;;;;40.63;22.94;99873.22;4972103;28;6890;-72
2022/09/13 12:08:16;;;;;;;;;;;;;;;40.84;22.20;99875.03;4968883;28;7005;-72
2022/09/13 12:10:56;;;;;;;;;;;;;;;40.75;22.09;99874.00;4969605;28;6844;-72
2022/09/13 12:13:29;;;;;;;;;;;;;;;40.93;22.08;99874.22;4953293;28;7743;-72
2022/09/13 12:16:03;;;;;;;;;;;;;;;41.07;21.50;99873.84;4970291;28;6804;-72
2022/09/13 12:18:41;;;;;;;;;;;;;;;41.08;21.25;99874.66;4970929;28;6808;-74
2022/09/13 12:21:18;;;;;;;;;;;;;;;40.96;22.00;99868.59;4977488;28;6811;-72
2022/09/13 12:23:58;;;;;;;;;;;;;;;40.89;22.19;99870.94;4968426;28;6808;-73
2022/09/13 12:26:36;;;;;;;;;;;;;;;40.65;22.31;99863.19;4983706;28;7001;-73
2022/09/13 12:29:19;;;;;;;;;;;;;;;39.93;22.51;99865.75;4969135;28;6816;-73
2022/09/13 12:31:45;;;;;;;;;;;;;;;39.06;23.28;99868.31;4970302;28;6980;-72
2022/09/13 12:34:25;;;;;;;;;;;;;;;38.26;23.93;99864.72;4965711;28;7161;-72
2022/09/13 12:37:18;;;;;;;;;;;;;;;37.50;24.47;99858.72;4970758;28;6812;-72
2022/09/13 12:40:34;;;;;;;;;;;;;;;37.04;25.23;99848.72;4971457;28;7060;-72
2022/09/13 12:43:49;;;;;;;;;;;;;;;37.16;25.97;99855.03;4966664;28;6981;-72
2022/09/13 12:46:55;;;;;;;;;;;;;;;37.67;25.70;99853.13;4986258;28;6888;-72
2022/09/13 12:49:58;;;;;;;;;;;;;;;37.93;25.40;99854.66;4969938;28;7000;-71
2022/09/13 12:53:10;;;;;;;;;;;;;;;37.97;25.11;99857.09;4981965;28;6860;-73
2022/09/13 12:56:17;;;;;;;;;;;;;;;37.83;25.29;99852.81;4985974;28;6824;-72
2022/09/13 12:59:01;;;;;;;;;;;;;;;37.79;25.18;99838.81;4960509;28;7067;-72
2022/09/13 13:01:31;;;;;;;;;;;;;;;37.63;25.20;99848.00;4964666;28;7383;-72
2022/09/13 13:04:19;;;;;;;;;;;;;;;37.31;25.53;99843.19;4969581;28;7135;-73
2022/09/13 13:07:04;;;;;;;;;;;;;;;37.29;26.28;99844.28;4983273;28;6956;-72
2022/09/13 13:09:47;;;;;;;;;;;;;;;37.56;25.81;99848.56;4960518;28;7381;-72
2022/09/13 13:12:37;;;;;;;;;;;;;;;37.69;25.90;99841.34;4967314;28;6955;-73
2022/09/13 13:15:25;;;;;;;;;;;;;;;37.74;25.59;99847.19;4984468;28;7087;-73
2022/09/13 13:17:53;;;;;;;;;;;;;;;37.73;25.41;99836.63;4986281;28;6812;-73
2022/09/13 13:21:04;;;;;;;;;;;;;;;37.74;25.82;99838.31;4969134;28;6796;-72
2022/09/13 13:23:35;;;;;;;;;;;;;;;37.96;26.05;99837.53;4987843;28;7035;-73
2022/09/13 13:26:19;;;;;;;;;;;;;;;38.02;25.58;99839.75;4970507;28;6812;-74
2022/09/13 13:28:49;;;;;;;;;;;;;;;37.89;26.05;99830.97;4969752;28;7208;-72
2022/09/13 13:31:23;;;;;;;;;;;;;;;37.71;25.51;99834.06;4986702;28;6987;-72
2022/09/13 13:34:13;;;;;;;;;;;;;;;37.46;25.79;99827.00;4986075;28;6796;-72
2022/09/13 13:36:39;;;;;;;;;;;;;;;37.01;25.86;99830.25;4983941;28;6871;-72
2022/09/13 13:39:32;;;;;;;;;;;;;;;36.53;27.05;99837.16;4984859;28;6848;-72
2022/09/13 13:41:59;;;;;;;;;;;;;;;35.98;27.38;99831.97;4970602;28;6828;-72
2022/09/13 13:44:24;;;;;;;;;;;;;;;35.56;27.95;99832.09;4985166;28;6987;-72
2022/09/13 13:47:13;;;;;;;;;;;;;;;35.15;28.61;99833.81;4984701;28;6760;-72
2022/09/13 13:49:39;;;;;;;;;;;;;;;34.91;28.49;99829.09;4967018;28;7240;-72
2022/09/13 13:52:07;;;;;;;;;;;;;;;34.82;29.21;99827.00;4967580;28;6976;-73
2022/09/13 13:54:44;;;;;;;;;;;;;;;34.79;28.80;99825.38;4985237;28;6981;-73
2022/09/13 13:57:25;;;;;;;;;;;;;;;34.77;29.13;99824.63;4984568;28;6800;-72
2022/09/13 13:59:57;;;;;;;;;;;;;;;34.71;28.81;99815.22;4984632;28;6888;-73
2022/09/13 14:02:38;;;;;;;;;;;;;;;34.62;28.76;99826.44;4986034;28;6978;-73